Dades de l'estació automàtica Girona

?
?

Resum diari

22:30 TU
Dades diàries de l'estació meteorològica
Temperatura mitjana 5.7 °C
Temperatura màxima 12.9 °C 13:14 TU
Temperatura mínima -2.0 °C 5:15 TU
Humitat relativa mitjana 75%
Precipitació acumulada 0.0 mm
Ratxa màxima del vent (10 m) 26.6 km/h - 209º 22:56 TU
Pressió atmosfèrica mitjana 1008.2 hPa
Irradiació solar global 8.7 MJ/m2

El tram horari està expressat en Temps Universal (TU). Cal sumar una hora en horari d'hivern i dues en horari d'estiu per passar a l'hora oficial.

Girona

Metadades estació meteorològica
Municipi Girona
Comarca Gironès
Altitud 72 m
Data alta 15.09.2010
Estat actual Operativa
Dades de període
Període
TU
TM
°C
TX
°C
TN
°C
HRM
%
PPT
mm
VVM (10 m)
km/h
DVM (10 m)
graus
VVX (10 m)
km/h
PM
hPa
RS
W/m2
00:00 - 00:30 -0.3 0.3 -0.8 96 0.0 1.1 302 4.3 1014.3 0
00:30 - 01:00 -0.7 -0.3 -0.9 96 0.0 1.8 147 4.3 1014.2 0
01:00 - 01:30 -0.5 -0.1 -1.0 96 0.0 1.8 345 5.4 1014.1 0
01:30 - 02:00 -0.7 -0.5 -0.9 96 0.0 1.4 300 4.3 1014.1 0
02:00 - 02:30 -0.6 -0.4 -1.3 96 0.0 1.8 354 5.8 1014.2 0
02:30 - 03:00 -1.0 -0.6 -1.4 96 0.0 1.8 283 4.3 1013.9 0
03:00 - 03:30 -1.0 -0.8 -1.1 96 0.0 3.6 285 6.8 1013.6 0
03:30 - 04:00 -0.7 -0.6 -1.0 96 0.0 2.2 15 5.8 1013.6 0
04:00 - 04:30 -1.2 -1.0 -1.5 96 0.0 1.4 296 4.0 1013.5 0
04:30 - 05:00 -1.6 -1.2 -1.9 96 0.0 1.4 288 4.0 1013.2 0
05:00 - 05:30 -1.9 -1.8 -2.0 96 0.0 0.4 4 2.5 1013.2 0
05:30 - 06:00 -1.6 -1.2 -1.9 96 0.0 1.4 308 4.7 1013.0 0
06:00 - 06:30 -1.6 -1.2 -1.8 96 0.0 0.7 355 3.2 1013.2 0
06:30 - 07:00 -1.0 -0.6 -1.7 96 0.0 1.8 317 4.0 1013.5 1
07:00 - 07:30 -0.5 -0.2 -0.7 96 0.0 2.2 256 4.0 1013.2 38
07:30 - 08:00 0.5 1.2 -0.2 96 0.0 0.7 7 3.6 1013.2 136
08:00 - 08:30 2.1 2.6 1.3 95 0.0 0.7 253 4.0 1012.9 118
08:30 - 09:00 2.5 3.8 2.1 92 0.0 1.4 290 4.0 1012.6 141
09:00 - 09:30 4.9 5.8 3.8 80 0.0 0.7 238 4.0 1012.3 290
09:30 - 10:00 6.6 7.3 5.9 68 0.0 2.5 189 9.0 1012.2 346
10:00 - 10:30 8.1 8.9 7.3 64 0.0 5.8 172 10.4 1011.6 392
10:30 - 11:00 9.2 10.0 8.6 63 0.0 6.8 155 11.5 1010.6 424
11:00 - 11:30 10.5 11.2 10.0 59 0.0 5.8 185 11.5 1010.1 441
11:30 - 12:00 11.2 11.6 10.7 58 0.0 7.6 184 18.7 1009.3 447
12:00 - 12:30 11.9 12.1 11.6 56 0.0 8.3 189 18.0 1008.4 440
12:30 - 13:00 12.4 12.8 11.9 54 0.0 7.9 190 15.5 1007.5 422
13:00 - 13:30 12.6 12.9 12.3 55 0.0 8.3 196 16.6 1007.1 374
13:30 - 14:00 12.6 12.9 12.2 53 0.0 9.4 183 16.2 1006.5 325
14:00 - 14:30 12.4 12.7 12.2 52 0.0 8.3 189 15.8 1006.2 250
14:30 - 15:00 12.0 12.2 11.7 53 0.0 9.4 173 20.9 1005.8 188
15:00 - 15:30 11.4 11.7 11.1 57 0.0 7.6 172 18.0 1005.2 99
15:30 - 16:00 10.7 11.0 10.2 57 0.0 9.0 179 20.2 1004.8 30
16:00 - 16:30 9.9 10.2 9.5 63 0.0 7.2 175 14.8 1004.6 2
16:30 - 17:00 9.2 9.4 8.8 68 0.0 6.5 184 12.6 1004.1 0
17:00 - 17:30 8.7 8.8 8.7 70 0.0 6.8 190 14.4 1003.6 0
17:30 - 18:00 8.6 8.7 8.4 71 0.0 7.6 185 14.4 1003.1 0
18:00 - 18:30 8.4 8.5 8.2 70 0.0 6.1 190 15.5 1002.4 0
18:30 - 19:00 8.4 8.7 8.1 68 0.0 6.5 192 14.4 1001.9 0
19:00 - 19:30 8.8 8.9 8.7 64 0.0 11.5 214 22.0 1001.5 0
19:30 - 20:00 8.9 9.0 8.9 63 0.0 9.0 212 16.2 1001.2 0
20:00 - 20:30 9.1 9.2 9.0 63 0.0 7.9 193 16.9 1000.4 0
20:30 - 21:00 9.3 9.4 9.1 63 0.0 11.5 159 22.0 999.6 0
21:00 - 21:30 9.3 9.6 9.0 63 0.0 8.6 167 18.7 999.1 0
21:30 - 22:00 9.3 9.5 9.0 60 0.0 8.6 220 18.7 998.6 0
22:00 - 22:30 9.5 9.6 9.3 61 0.0 9.0 226 21.2 998.4 0
22:30 - 23:00 9.5 9.6 9.4 66 0.0 14.4 204 26.6 998.0 0

Les dades en taronja només han passat un control de qualitat automàtic. Resta pendent la seva validació definitiva.